sensor_id;sensor_type;location;lat;lon;timestamp;temperature;humidity
33739;DHT22;20063;51.730;11.110;2022-09-01T00:00:44;13.00;99.90
33739;DHT22;20063;51.730;11.110;2022-09-01T00:03:15;13.00;99.90
33739;DHT22;20063;51.730;11.110;2022-09-01T00:05:41;12.90;99.90
33739;DHT22;20063;51.730;11.110;2022-09-01T00:08:06;13.00;99.90
33739;DHT22;20063;51.730;11.110;2022-09-01T00:10:32;13.00;99.90
33739;DHT22;20063;51.730;11.110;2022-09-01T00:12:58;13.00;99.90
33739;DHT22;20063;51.730;11.110;2022-09-01T00:15:24;13.00;99.90
33739;DHT22;20063;51.730;11.110;2022-09-01T00:17:50;13.00;99.90
33739;DHT22;20063;51.730;11.110;2022-09-01T00:20:15;12.90;99.90
33739;DHT22;20063;51.730;11.110;2022-09-01T00:22:41;13.00;99.90
33739;DHT22;20063;51.730;11.110;2022-09-01T00:25:07;12.90;99.90
33739;DHT22;20063;51.730;11.110;2022-09-01T00:27:33;12.90;99.90
33739;DHT22;20063;51.730;11.110;2022-09-01T00:29:59;12.90;99.90
33739;DHT22;20063;51.730;11.110;2022-09-01T00:32:25;12.80;99.90
33739;DHT22;20063;51.730;11.110;2022-09-01T00:34:50;12.80;99.90
33739;DHT22;20063;51.730;11.110;2022-09-01T00:37:16;12.80;99.90
33739;DHT22;20063;51.730;11.110;2022-09-01T00:39:42;12.80;99.90
33739;DHT22;20063;51.730;11.110;2022-09-01T00:42:07;12.80;99.90
33739;DHT22;20063;51.730;11.110;2022-09-01T00:44:34;12.80;99.90
33739;DHT22;20063;51.730;11.110;2022-09-01T00:47:00;12.80;99.90
33739;DHT22;20063;51.730;11.110;2022-09-01T00:49:33;12.80;99.90
33739;DHT22;20063;51.730;11.110;2022-09-01T00:52:19;12.80;99.90
33739;DHT22;20063;51.730;11.110;2022-09-01T00:54:50;12.80;99.90
33739;DHT22;20063;51.730;11.110;2022-09-01T00:57:17;12.70;99.90
33739;DHT22;20063;51.730;11.110;2022-09-01T00:59:48;12.80;99.90
33739;DHT22;20063;51.730;11.110;2022-09-01T01:02:14;12.70;99.90
33739;DHT22;20063;51.730;11.110;2022-09-01T01:04:40;12.60;99.90
33739;DHT22;20063;51.730;11.110;2022-09-01T01:07:08;12.70;99.90
33739;DHT22;20063;51.730;11.110;2022-09-01T01:09:39;12.60;99.90
33739;DHT22;20063;51.730;11.110;2022-09-01T01:12:06;12.60;99.90
33739;DHT22;20063;51.730;11.110;2022-09-01T01:14:34;12.50;99.90
33739;DHT22;20063;51.730;11.110;2022-09-01T01:17:01;12.50;99.90
33739;DHT22;20063;51.730;11.110;2022-09-01T01:19:40;12.50;99.90
33739;DHT22;20063;51.730;11.110;2022-09-01T01:22:34;12.50;99.90
33739;DHT22;20063;51.730;11.110;2022-09-01T01:25:20;12.50;99.90
33739;DHT22;20063;51.730;11.110;2022-09-01T01:27:47;12.50;99.90
33739;DHT22;20063;51.730;11.110;2022-09-01T01:30:12;12.50;99.90
33739;DHT22;20063;51.730;11.110;2022-09-01T01:32:39;12.60;99.90
33739;DHT22;20063;51.730;11.110;2022-09-01T01:35:11;12.50;99.90
33739;DHT22;20063;51.730;11.110;2022-09-01T01:37:40;12.50;99.90
33739;DHT22;20063;51.730;11.110;2022-09-01T01:40:12;12.40;99.90
33739;DHT22;20063;51.730;11.110;2022-09-01T01:42:47;12.40;99.90
33739;DHT22;20063;51.730;11.110;2022-09-01T01:45:15;12.40;99.90
33739;DHT22;20063;51.730;11.110;2022-09-01T01:47:44;12.30;99.90
33739;DHT22;20063;51.730;11.110;2022-09-01T01:50:23;12.30;99.90
33739;DHT22;20063;51.730;11.110;2022-09-01T01:52:49;12.20;99.90
33739;DHT22;20063;51.730;11.110;2022-09-01T01:55:15;12.20;99.90
33739;DHT22;20063;51.730;11.110;2022-09-01T01:57:44;12.20;99.90
33739;DHT22;20063;51.730;11.110;2022-09-01T02:00:18;12.20;99.90
33739;DHT22;20063;51.730;11.110;2022-09-01T02:02:48;12.20;99.90
33739;DHT22;20063;51.730;11.110;2022-09-01T02:05:37;12.10;99.90
33739;DHT22;20063;51.730;11.110;2022-09-01T02:08:06;12.20;99.90
33739;DHT22;20063;51.730;11.110;2022-09-01T02:10:49;12.10;99.90
33739;DHT22;20063;51.730;11.110;2022-09-01T02:13:17;12.00;99.90
33739;DHT22;20063;51.730;11.110;2022-09-01T02:15:48;12.00;99.90
33739;DHT22;20063;51.730;11.110;2022-09-01T02:18:17;12.00;99.90
33739;DHT22;20063;51.730;11.110;2022-09-01T02:20:48;12.00;99.90
33739;DHT22;20063;51.730;11.110;2022-09-01T02:23:14;12.00;99.90
33739;DHT22;20063;51.730;11.110;2022-09-01T02:25:44;11.90;99.90
33739;DHT22;20063;51.730;11.110;2022-09-01T02:28:14;12.00;99.90
33739;DHT22;20063;51.730;11.110;2022-09-01T02:30:42;11.90;99.90
33739;DHT22;20063;51.730;11.110;2022-09-01T02:33:10;12.00;99.90
33739;DHT22;20063;51.730;11.110;2022-09-01T02:35:43;11.90;99.90
33739;DHT22;20063;51.730;11.110;2022-09-01T02:38:09;12.00;99.90
33739;DHT22;20063;51.730;11.110;2022-09-01T02:40:38;12.00;99.90
33739;DHT22;20063;51.730;11.110;2022-09-01T02:43:05;11.90;99.90
33739;DHT22;20063;51.730;11.110;2022-09-01T02:45:30;11.90;99.90
33739;DHT22;20063;51.730;11.110;2022-09-01T02:47:57;11.90;99.90
33739;DHT22;20063;51.730;11.110;2022-09-01T02:50:24;11.90;99.90
33739;DHT22;20063;51.730;11.110;2022-09-01T02:52:51;11.90;99.90
33739;DHT22;20063;51.730;11.110;2022-09-01T02:55:18;11.90;99.90
33739;DHT22;20063;51.730;11.110;2022-09-01T02:57:48;11.90;99.90
33739;DHT22;20063;51.730;11.110;2022-09-01T03:00:15;12.00;99.90
33739;DHT22;20063;51.730;11.110;2022-09-01T03:02:56;12.00;99.90
33739;DHT22;20063;51.730;11.110;2022-09-01T03:05:24;12.00;99.90
33739;DHT22;20063;51.730;11.110;2022-09-01T03:08:10;11.90;99.90
33739;DHT22;20063;51.730;11.110;2022-09-01T03:10:41;11.90;99.90
33739;DHT22;20063;51.730;11.110;2022-09-01T03:13:11;11.90;99.90
33739;DHT22;20063;51.730;11.110;2022-09-01T03:15:37;11.90;99.90
33739;DHT22;20063;51.730;11.110;2022-09-01T03:18:03;12.00;99.90
33739;DHT22;20063;51.730;11.110;2022-09-01T03:20:31;11.90;99.90
33739;DHT22;20063;51.730;11.110;2022-09-01T03:22:59;12.00;99.90
33739;DHT22;20063;51.730;11.110;2022-09-01T03:25:25;12.00;99.90
33739;DHT22;20063;51.730;11.110;2022-09-01T03:27:51;12.00;99.90
33739;DHT22;20063;51.730;11.110;2022-09-01T03:30:18;12.10;99.90
33739;DHT22;20063;51.730;11.110;2022-09-01T03:32:44;12.10;99.90
33739;DHT22;20063;51.730;11.110;2022-09-01T03:35:11;12.10;99.90
33739;DHT22;20063;51.730;11.110;2022-09-01T03:37:37;12.20;99.90
33739;DHT22;20063;51.730;11.110;2022-09-01T03:40:05;12.20;99.90
33739;DHT22;20063;51.730;11.110;2022-09-01T03:42:34;12.20;99.90
33739;DHT22;20063;51.730;11.110;2022-09-01T03:45:01;12.30;99.90
33739;DHT22;20063;51.730;11.110;2022-09-01T03:47:37;12.30;99.90
33739;DHT22;20063;51.730;11.110;2022-09-01T03:50:06;12.30;99.90
33739;DHT22;20063;51.730;11.110;2022-09-01T03:52:35;12.30;99.90
33739;DHT22;20063;51.730;11.110;2022-09-01T03:55:03;12.30;99.90
33739;DHT22;20063;51.730;11.110;2022-09-01T03:57:29;12.30;99.90
33739;DHT22;20063;51.730;11.110;2022-09-01T03:59:55;12.20;99.90
33739;DHT22;20063;51.730;11.110;2022-09-01T04:02:21;12.20;99.90
33739;DHT22;20063;51.730;11.110;2022-09-01T04:04:47;12.20;99.90
33739;DHT22;20063;51.730;11.110;2022-09-01T04:07:13;12.10;99.90
33739;DHT22;20063;51.730;11.110;2022-09-01T04:09:38;12.20;99.90
33739;DHT22;20063;51.730;11.110;2022-09-01T04:12:04;12.10;99.90
33739;DHT22;20063;51.730;11.110;2022-09-01T04:14:40;12.20;99.90
33739;DHT22;20063;51.730;11.110;2022-09-01T04:17:05;12.20;99.90
33739;DHT22;20063;51.730;11.110;2022-09-01T04:19:49;12.20;99.90
33739;DHT22;20063;51.730;11.110;2022-09-01T04:22:15;12.30;99.90
33739;DHT22;20063;51.730;11.110;2022-09-01T04:24:42;12.30;99.90
33739;DHT22;20063;51.730;11.110;2022-09-01T04:27:09;12.30;99.90
33739;DHT22;20063;51.730;11.110;2022-09-01T04:29:35;12.30;99.90
33739;DHT22;20063;51.730;11.110;2022-09-01T04:32:05;12.30;99.90
33739;DHT22;20063;51.730;11.110;2022-09-01T04:34:33;12.30;99.90
33739;DHT22;20063;51.730;11.110;2022-09-01T04:37:06;12.40;99.90
33739;DHT22;20063;51.730;11.110;2022-09-01T04:39:32;12.40;99.90
33739;DHT22;20063;51.730;11.110;2022-09-01T04:41:59;12.40;99.90
33739;DHT22;20063;51.730;11.110;2022-09-01T04:44:24;12.50;99.90
33739;DHT22;20063;51.730;11.110;2022-09-01T04:46:50;12.50;99.90
33739;DHT22;20063;51.730;11.110;2022-09-01T04:49:18;12.50;99.90
33739;DHT22;20063;51.730;11.110;2022-09-01T04:51:48;12.50;99.90
33739;DHT22;20063;51.730;11.110;2022-09-01T04:54:16;12.50;99.90
33739;DHT22;20063;51.730;11.110;2022-09-01T04:56:45;12.60;99.90
33739;DHT22;20063;51.730;11.110;2022-09-01T04:59:12;12.60;99.90
33739;DHT22;20063;51.730;11.110;2022-09-01T05:01:39;12.50;99.90
33739;DHT22;20063;51.730;11.110;2022-09-01T05:04:29;12.50;99.90
33739;DHT22;20063;51.730;11.110;2022-09-01T05:06:58;12.50;99.90
33739;DHT22;20063;51.730;11.110;2022-09-01T05:09:27;12.40;99.90
33739;DHT22;20063;51.730;11.110;2022-09-01T05:11:53;12.40;99.90
33739;DHT22;20063;51.730;11.110;2022-09-01T05:14:19;12.40;99.90
33739;DHT22;20063;51.730;11.110;2022-09-01T05:16:45;12.30;99.90
33739;DHT22;20063;51.730;11.110;2022-09-01T05:19:12;12.30;99.90
33739;DHT22;20063;51.730;11.110;2022-09-01T05:21:43;12.30;99.90
33739;DHT22;20063;51.730;11.110;2022-09-01T05:24:14;12.30;99.90
33739;DHT22;20063;51.730;11.110;2022-09-01T05:26:41;12.30;99.90
33739;DHT22;20063;51.730;11.110;2022-09-01T05:29:09;12.30;99.90
33739;DHT22;20063;51.730;11.110;2022-09-01T05:31:43;12.40;99.90
33739;DHT22;20063;51.730;11.110;2022-09-01T05:34:09;12.40;99.90
33739;DHT22;20063;51.730;11.110;2022-09-01T05:36:36;12.40;99.90
33739;DHT22;20063;51.730;11.110;2022-09-01T05:39:05;12.50;99.90
33739;DHT22;20063;51.730;11.110;2022-09-01T05:41:31;12.50;99.90
33739;DHT22;20063;51.730;11.110;2022-09-01T05:44:02;12.50;99.90
33739;DHT22;20063;51.730;11.110;2022-09-01T05:46:34;12.60;99.90
33739;DHT22;20063;51.730;11.110;2022-09-01T05:49:00;12.70;99.90
33739;DHT22;20063;51.730;11.110;2022-09-01T05:51:28;12.70;99.90
33739;DHT22;20063;51.730;11.110;2022-09-01T05:53:56;12.80;99.90
33739;DHT22;20063;51.730;11.110;2022-09-01T05:56:27;12.90;99.90
33739;DHT22;20063;51.730;11.110;2022-09-01T05:58:53;13.00;99.90
33739;DHT22;20063;51.730;11.110;2022-09-01T06:01:24;13.00;99.90
33739;DHT22;20063;51.730;11.110;2022-09-01T06:03:52;13.10;99.90
33739;DHT22;20063;51.730;11.110;2022-09-01T06:06:21;13.20;99.90
33739;DHT22;20063;51.730;11.110;2022-09-01T06:08:48;13.20;99.90
33739;DHT22;20063;51.730;11.110;2022-09-01T06:11:14;13.30;99.90
33739;DHT22;20063;51.730;11.110;2022-09-01T06:13:42;13.30;99.90
33739;DHT22;20063;51.730;11.110;2022-09-01T06:16:09;13.40;99.90
33739;DHT22;20063;51.730;11.110;2022-09-01T06:18:39;13.40;99.90
33739;DHT22;20063;51.730;11.110;2022-09-01T06:21:08;13.50;99.90
33739;DHT22;20063;51.730;11.110;2022-09-01T06:23:36;13.50;99.90
33739;DHT22;20063;51.730;11.110;2022-09-01T06:26:02;13.50;99.90
33739;DHT22;20063;51.730;11.110;2022-09-01T06:28:28;13.50;99.90
33739;DHT22;20063;51.730;11.110;2022-09-01T06:30:55;13.50;99.90
33739;DHT22;20063;51.730;11.110;2022-09-01T06:33:22;13.60;99.90
33739;DHT22;20063;51.730;11.110;2022-09-01T06:35:51;13.60;99.90
33739;DHT22;20063;51.730;11.110;2022-09-01T06:38:18;13.60;99.90
33739;DHT22;20063;51.730;11.110;2022-09-01T06:40:44;13.70;99.90
33739;DHT22;20063;51.730;11.110;2022-09-01T06:43:10;13.80;99.90
33739;DHT22;20063;51.730;11.110;2022-09-01T06:45:44;13.80;99.90
33739;DHT22;20063;51.730;11.110;2022-09-01T06:48:13;13.80;99.90
33739;DHT22;20063;51.730;11.110;2022-09-01T06:50:40;13.90;99.90
33739;DHT22;20063;51.730;11.110;2022-09-01T06:53:07;13.90;99.90
33739;DHT22;20063;51.730;11.110;2022-09-01T06:55:39;14.00;99.90
33739;DHT22;20063;51.730;11.110;2022-09-01T06:58:06;14.10;99.90
33739;DHT22;20063;51.730;11.110;2022-09-01T07:00:35;14.10;99.90
33739;DHT22;20063;51.730;11.110;2022-09-01T07:03:04;14.10;99.90
33739;DHT22;20063;51.730;11.110;2022-09-01T07:05:38;14.20;99.90
33739;DHT22;20063;51.730;11.110;2022-09-01T07:08:04;14.20;99.90
33739;DHT22;20063;51.730;11.110;2022-09-01T07:10:43;14.30;99.90
33739;DHT22;20063;51.730;11.110;2022-09-01T07:13:14;14.30;99.90
33739;DHT22;20063;51.730;11.110;2022-09-01T07:15:43;14.30;99.90
33739;DHT22;20063;51.730;11.110;2022-09-01T07:18:09;14.40;99.90
33739;DHT22;20063;51.730;11.110;2022-09-01T07:20:40;14.50;99.90
33739;DHT22;20063;51.730;11.110;2022-09-01T07:23:07;14.50;99.90
33739;DHT22;20063;51.730;11.110;2022-09-01T07:25:40;14.50;99.90
33739;DHT22;20063;51.730;11.110;2022-09-01T07:28:07;14.60;99.90
33739;DHT22;20063;51.730;11.110;2022-09-01T07:30:33;14.60;99.90
33739;DHT22;20063;51.730;11.110;2022-09-01T07:33:04;14.70;99.90
33739;DHT22;20063;51.730;11.110;2022-09-01T07:35:37;14.60;99.90
33739;DHT22;20063;51.730;11.110;2022-09-01T07:38:03;14.70;99.90
33739;DHT22;20063;51.730;11.110;2022-09-01T07:40:30;14.70;99.90
33739;DHT22;20063;51.730;11.110;2022-09-01T07:42:56;14.70;99.90
33739;DHT22;20063;51.730;11.110;2022-09-01T07:45:22;14.80;99.90
33739;DHT22;20063;51.730;11.110;2022-09-01T07:47:50;14.80;99.90
33739;DHT22;20063;51.730;11.110;2022-09-01T07:50:15;14.90;99.90
33739;DHT22;20063;51.730;11.110;2022-09-01T07:52:42;14.90;99.90
33739;DHT22;20063;51.730;11.110;2022-09-01T07:55:13;15.00;99.90
33739;DHT22;20063;51.730;11.110;2022-09-01T07:57:40;15.10;99.90
33739;DHT22;20063;51.730;11.110;2022-09-01T08:00:09;15.20;99.90
33739;DHT22;20063;51.730;11.110;2022-09-01T08:02:36;15.30;99.90
33739;DHT22;20063;51.730;11.110;2022-09-01T08:05:07;15.40;99.90
33739;DHT22;20063;51.730;11.110;2022-09-01T08:07:36;15.40;99.90
33739;DHT22;20063;51.730;11.110;2022-09-01T08:10:07;15.50;99.90
33739;DHT22;20063;51.730;11.110;2022-09-01T08:12:33;15.50;99.90
33739;DHT22;20063;51.730;11.110;2022-09-01T08:15:04;15.60;99.90
33739;DHT22;20063;51.730;11.110;2022-09-01T08:17:31;15.70;99.90
33739;DHT22;20063;51.730;11.110;2022-09-01T08:19:56;15.70;99.90
33739;DHT22;20063;51.730;11.110;2022-09-01T08:22:22;15.70;99.90
33739;DHT22;20063;51.730;11.110;2022-09-01T08:24:50;15.80;99.90
33739;DHT22;20063;51.730;11.110;2022-09-01T08:27:15;15.90;99.90
33739;DHT22;20063;51.730;11.110;2022-09-01T08:29:41;15.90;99.90
33739;DHT22;20063;51.730;11.110;2022-09-01T08:32:07;16.00;99.90
33739;DHT22;20063;51.730;11.110;2022-09-01T08:34:33;16.10;99.90
33739;DHT22;20063;51.730;11.110;2022-09-01T08:36:59;16.10;99.90
33739;DHT22;20063;51.730;11.110;2022-09-01T08:39:25;16.10;99.90
33739;DHT22;20063;51.730;11.110;2022-09-01T08:44:45;16.20;99.90
33739;DHT22;20063;51.730;11.110;2022-09-01T08:47:18;16.30;99.90
33739;DHT22;20063;51.730;11.110;2022-09-01T08:49:45;16.40;99.90
33739;DHT22;20063;51.730;11.110;2022-09-01T08:55:20;16.40;99.90
33739;DHT22;20063;51.730;11.110;2022-09-01T08:57:50;16.50;99.90
33739;DHT22;20063;51.730;11.110;2022-09-01T09:00:19;16.60;99.90
33739;DHT22;20063;51.730;11.110;2022-09-01T09:09:04;16.90;99.90
33739;DHT22;20063;51.730;11.110;2022-09-01T09:15:08;17.00;99.90
33739;DHT22;20063;51.730;11.110;2022-09-01T09:17:39;17.20;99.90
33739;DHT22;20063;51.730;11.110;2022-09-01T09:20:07;17.20;99.90
33739;DHT22;20063;51.730;11.110;2022-09-01T09:22:33;17.30;99.90
33739;DHT22;20063;51.730;11.110;2022-09-01T09:25:16;17.30;99.90
33739;DHT22;20063;51.730;11.110;2022-09-01T09:27:45;17.40;99.90
33739;DHT22;20063;51.730;11.110;2022-09-01T09:35:17;17.60;99.90
33739;DHT22;20063;51.730;11.110;2022-09-01T09:37:43;17.60;99.90
33739;DHT22;20063;51.730;11.110;2022-09-01T09:40:10;17.70;99.90
33739;DHT22;20063;51.730;11.110;2022-09-01T09:42:41;17.80;99.90
33739;DHT22;20063;51.730;11.110;2022-09-01T09:45:24;17.90;99.90
33739;DHT22;20063;51.730;11.110;2022-09-01T09:47:51;18.00;99.90
33739;DHT22;20063;51.730;11.110;2022-09-01T09:52:51;18.10;99.90
33739;DHT22;20063;51.730;11.110;2022-09-01T09:55:28;18.20;99.90
33739;DHT22;20063;51.730;11.110;2022-09-01T09:57:57;18.30;99.90
33739;DHT22;20063;51.730;11.110;2022-09-01T10:00:30;18.40;99.90
33739;DHT22;20063;51.730;11.110;2022-09-01T10:03:05;18.40;99.90
33739;DHT22;20063;51.730;11.110;2022-09-01T10:08:00;18.50;99.90
33739;DHT22;20063;51.730;11.110;2022-09-01T10:10:36;18.60;99.90
33739;DHT22;20063;51.730;11.110;2022-09-01T10:13:04;18.60;99.90
33739;DHT22;20063;51.730;11.110;2022-09-01T10:15:32;18.70;99.90
33739;DHT22;20063;51.730;11.110;2022-09-01T10:18:20;18.70;99.90
33739;DHT22;20063;51.730;11.110;2022-09-01T10:20:58;18.70;99.90
33739;DHT22;20063;51.730;11.110;2022-09-01T10:23:27;18.80;99.90
33739;DHT22;20063;51.730;11.110;2022-09-01T10:26:06;18.80;99.90
33739;DHT22;20063;51.730;11.110;2022-09-01T10:28:40;18.90;99.90
33739;DHT22;20063;51.730;11.110;2022-09-01T10:31:08;19.00;99.90
33739;DHT22;20063;51.730;11.110;2022-09-01T10:33:35;19.00;99.90
33739;DHT22;20063;51.730;11.110;2022-09-01T10:36:00;18.90;99.90
33739;DHT22;20063;51.730;11.110;2022-09-01T10:38:28;18.80;99.90
33739;DHT22;20063;51.730;11.110;2022-09-01T10:40:58;18.80;99.90
33739;DHT22;20063;51.730;11.110;2022-09-01T10:43:37;18.70;98.70
33739;DHT22;20063;51.730;11.110;2022-09-01T10:48:53;18.50;99.90
33739;DHT22;20063;51.730;11.110;2022-09-01T10:53:48;18.60;99.00
33739;DHT22;20063;51.730;11.110;2022-09-01T10:56:15;18.70;95.80
33739;DHT22;20063;51.730;11.110;2022-09-01T10:58:57;18.70;92.90
33739;DHT22;20063;51.730;11.110;2022-09-01T11:02:18;18.70;93.40
33739;DHT22;20063;51.730;11.110;2022-09-01T11:13:02;18.60;84.90
33739;DHT22;20063;51.730;11.110;2022-09-01T11:15:40;18.70;86.80
33739;DHT22;20063;51.730;11.110;2022-09-01T11:18:26;18.70;84.60
33739;DHT22;20063;51.730;11.110;2022-09-01T11:20:54;18.70;85.70
33739;DHT22;20063;51.730;11.110;2022-09-01T11:23:27;18.70;86.10
33739;DHT22;20063;51.730;11.110;2022-09-01T11:26:01;18.70;84.90
33739;DHT22;20063;51.730;11.110;2022-09-01T11:28:43;18.60;86.00
33739;DHT22;20063;51.730;11.110;2022-09-01T11:31:19;18.60;87.30
33739;DHT22;20063;51.730;11.110;2022-09-01T11:34:01;18.60;83.10
33739;DHT22;20063;51.730;11.110;2022-09-01T11:36:32;18.70;84.70
33739;DHT22;20063;51.730;11.110;2022-09-01T11:42:11;18.90;81.90
33739;DHT22;20063;51.730;11.110;2022-09-01T11:45:01;19.00;80.40
33739;DHT22;20063;51.730;11.110;2022-09-01T11:47:36;19.20;80.00
33739;DHT22;20063;51.730;11.110;2022-09-01T11:52:42;19.30;78.10
33739;DHT22;20063;51.730;11.110;2022-09-01T11:55:08;19.40;76.40
33739;DHT22;20063;51.730;11.110;2022-09-01T11:57:39;19.50;75.50
33739;DHT22;20063;51.730;11.110;2022-09-01T12:00:12;19.70;74.60
33739;DHT22;20063;51.730;11.110;2022-09-01T12:02:45;19.90;69.20
33739;DHT22;20063;51.730;11.110;2022-09-01T12:07:52;20.20;62.90
33739;DHT22;20063;51.730;11.110;2022-09-01T12:10:21;20.20;61.40
33739;DHT22;20063;51.730;11.110;2022-09-01T12:13:05;20.20;61.50
33739;DHT22;20063;51.730;11.110;2022-09-01T12:15:32;20.10;62.70
33739;DHT22;20063;51.730;11.110;2022-09-01T12:18:24;20.00;62.20
33739;DHT22;20063;51.730;11.110;2022-09-01T12:20:52;19.90;64.00
33739;DHT22;20063;51.730;11.110;2022-09-01T12:23:30;19.90;64.70
33739;DHT22;20063;51.730;11.110;2022-09-01T12:25:58;19.90;65.30
33739;DHT22;20063;51.730;11.110;2022-09-01T12:28:28;19.80;65.90
33739;DHT22;20063;51.730;11.110;2022-09-01T12:30:57;19.70;66.40
33739;DHT22;20063;51.730;11.110;2022-09-01T12:33:23;19.80;66.10
33739;DHT22;20063;51.730;11.110;2022-09-01T12:35:50;19.80;65.80
33739;DHT22;20063;51.730;11.110;2022-09-01T12:40:53;19.80;66.80
33739;DHT22;20063;51.730;11.110;2022-09-01T12:45:57;19.80;66.00
33739;DHT22;20063;51.730;11.110;2022-09-01T12:48:37;19.80;65.50
33739;DHT22;20063;51.730;11.110;2022-09-01T12:51:22;19.70;64.40
33739;DHT22;20063;51.730;11.110;2022-09-01T12:54:02;19.80;67.60
33739;DHT22;20063;51.730;11.110;2022-09-01T12:56:32;19.80;67.40
33739;DHT22;20063;51.730;11.110;2022-09-01T12:59:20;19.80;64.30
33739;DHT22;20063;51.730;11.110;2022-09-01T13:01:46;19.80;64.20
33739;DHT22;20063;51.730;11.110;2022-09-01T13:04:23;19.80;63.00
33739;DHT22;20063;51.730;11.110;2022-09-01T13:07:05;19.80;61.80
33739;DHT22;20063;51.730;11.110;2022-09-01T13:09:31;19.90;61.50
33739;DHT22;20063;51.730;11.110;2022-09-01T13:12:18;19.80;61.30
33739;DHT22;20063;51.730;11.110;2022-09-01T13:14:44;19.90;62.00
33739;DHT22;20063;51.730;11.110;2022-09-01T13:17:10;19.90;59.90
33739;DHT22;20063;51.730;11.110;2022-09-01T13:19:37;19.90;58.80
33739;DHT22;20063;51.730;11.110;2022-09-01T13:22:03;19.90;57.00
33739;DHT22;20063;51.730;11.110;2022-09-01T13:24:29;19.90;57.60
33739;DHT22;20063;51.730;11.110;2022-09-01T13:26:55;19.90;56.40
33739;DHT22;20063;51.730;11.110;2022-09-01T13:29:22;19.90;55.70
33739;DHT22;20063;51.730;11.110;2022-09-01T13:31:48;19.90;56.00
33739;DHT22;20063;51.730;11.110;2022-09-01T13:34:13;19.80;55.80
33739;DHT22;20063;51.730;11.110;2022-09-01T13:36:39;19.80;55.20
33739;DHT22;20063;51.730;11.110;2022-09-01T13:39:05;19.80;53.80
33739;DHT22;20063;51.730;11.110;2022-09-01T13:41:31;19.80;54.00
33739;DHT22;20063;51.730;11.110;2022-09-01T13:43:56;19.90;54.50
33739;DHT22;20063;51.730;11.110;2022-09-01T13:46:22;19.90;54.60
33739;DHT22;20063;51.730;11.110;2022-09-01T13:48:48;20.00;53.20
33739;DHT22;20063;51.730;11.110;2022-09-01T13:51:26;20.20;54.70
33739;DHT22;20063;51.730;11.110;2022-09-01T13:53:52;20.40;52.40
33739;DHT22;20063;51.730;11.110;2022-09-01T13:56:18;20.60;51.60
33739;DHT22;20063;51.730;11.110;2022-09-01T13:58:43;20.70;52.50
33739;DHT22;20063;51.730;11.110;2022-09-01T14:01:09;20.80;52.20
33739;DHT22;20063;51.730;11.110;2022-09-01T14:03:36;20.90;50.80
33739;DHT22;20063;51.730;11.110;2022-09-01T14:06:02;21.00;49.80
33739;DHT22;20063;51.730;11.110;2022-09-01T14:08:27;21.00;48.40
33739;DHT22;20063;51.730;11.110;2022-09-01T14:10:53;21.10;49.00
33739;DHT22;20063;51.730;11.110;2022-09-01T14:13:23;21.20;48.90
33739;DHT22;20063;51.730;11.110;2022-09-01T14:15:49;21.30;47.40
33739;DHT22;20063;51.730;11.110;2022-09-01T14:18:17;21.30;47.80
33739;DHT22;20063;51.730;11.110;2022-09-01T14:20:46;21.40;46.70
33739;DHT22;20063;51.730;11.110;2022-09-01T14:23:12;21.40;46.80
33739;DHT22;20063;51.730;11.110;2022-09-01T14:25:44;21.50;47.30
33739;DHT22;20063;51.730;11.110;2022-09-01T14:28:10;21.60;47.40
33739;DHT22;20063;51.730;11.110;2022-09-01T14:30:39;21.60;47.80
33739;DHT22;20063;51.730;11.110;2022-09-01T14:33:07;21.60;47.50
33739;DHT22;20063;51.730;11.110;2022-09-01T14:35:32;21.60;46.90
33739;DHT22;20063;51.730;11.110;2022-09-01T14:38:00;21.60;46.10
33739;DHT22;20063;51.730;11.110;2022-09-01T14:40:27;21.50;45.90
33739;DHT22;20063;51.730;11.110;2022-09-01T14:42:53;21.40;46.50
33739;DHT22;20063;51.730;11.110;2022-09-01T14:45:22;21.40;48.10
33739;DHT22;20063;51.730;11.110;2022-09-01T14:47:49;21.30;47.90
33739;DHT22;20063;51.730;11.110;2022-09-01T14:50:16;21.30;47.50
33739;DHT22;20063;51.730;11.110;2022-09-01T14:52:53;21.30;47.50
33739;DHT22;20063;51.730;11.110;2022-09-01T14:55:23;21.30;47.80
33739;DHT22;20063;51.730;11.110;2022-09-01T14:57:50;21.40;48.80
33739;DHT22;20063;51.730;11.110;2022-09-01T15:00:17;21.40;46.50
33739;DHT22;20063;51.730;11.110;2022-09-01T15:02:43;21.40;47.10
33739;DHT22;20063;51.730;11.110;2022-09-01T15:05:11;21.40;47.00
33739;DHT22;20063;51.730;11.110;2022-09-01T15:07:37;21.40;46.60
33739;DHT22;20063;51.730;11.110;2022-09-01T15:10:04;21.20;47.70
33739;DHT22;20063;51.730;11.110;2022-09-01T15:12:31;21.10;47.90
33739;DHT22;20063;51.730;11.110;2022-09-01T15:14:57;20.90;48.10
33739;DHT22;20063;51.730;11.110;2022-09-01T15:17:24;20.80;48.20
33739;DHT22;20063;51.730;11.110;2022-09-01T15:19:50;20.70;48.40
33739;DHT22;20063;51.730;11.110;2022-09-01T15:22:15;20.60;48.80
33739;DHT22;20063;51.730;11.110;2022-09-01T15:24:41;20.50;49.00
33739;DHT22;20063;51.730;11.110;2022-09-01T15:27:07;20.60;50.00
33739;DHT22;20063;51.730;11.110;2022-09-01T15:29:35;20.70;49.30
33739;DHT22;20063;51.730;11.110;2022-09-01T15:32:09;20.70;49.90
33739;DHT22;20063;51.730;11.110;2022-09-01T15:34:35;20.80;49.40
33739;DHT22;20063;51.730;11.110;2022-09-01T15:37:00;21.00;49.60
33739;DHT22;20063;51.730;11.110;2022-09-01T15:39:26;21.10;48.30
33739;DHT22;20063;51.730;11.110;2022-09-01T15:41:52;21.10;47.80
33739;DHT22;20063;51.730;11.110;2022-09-01T15:44:18;21.20;47.00
33739;DHT22;20063;51.730;11.110;2022-09-01T15:46:43;21.20;47.10
33739;DHT22;20063;51.730;11.110;2022-09-01T15:49:10;21.30;47.10
33739;DHT22;20063;51.730;11.110;2022-09-01T15:51:41;21.30;45.90
33739;DHT22;20063;51.730;11.110;2022-09-01T15:54:12;21.30;46.30
33739;DHT22;20063;51.730;11.110;2022-09-01T15:56:38;21.40;46.40
33739;DHT22;20063;51.730;11.110;2022-09-01T15:59:06;21.40;46.50
33739;DHT22;20063;51.730;11.110;2022-09-01T16:01:34;21.50;46.20
33739;DHT22;20063;51.730;11.110;2022-09-01T16:04:02;21.40;47.20
33739;DHT22;20063;51.730;11.110;2022-09-01T16:06:28;21.50;47.80
33739;DHT22;20063;51.730;11.110;2022-09-01T16:08:54;21.50;47.00
33739;DHT22;20063;51.730;11.110;2022-09-01T16:11:35;21.60;46.90
33739;DHT22;20063;51.730;11.110;2022-09-01T16:14:04;21.70;46.30
33739;DHT22;20063;51.730;11.110;2022-09-01T16:22:12;22.10;46.90
33739;DHT22;20063;51.730;11.110;2022-09-01T16:24:45;22.20;46.20
33739;DHT22;20063;51.730;11.110;2022-09-01T16:27:17;22.20;46.10